Terminal Aerodrome Forecast
Issued by NWS

Home | Current Version | Previous Version | Text Only | Print | Product List | Glossary On
Versions: 1 2 3 4 5 6 7 8 9 10 11 12 13 14 15 16 17 18 19 20 21 22 23 24 25 26 27 28 29
000
FTUS43 KGLD 272341
TAFMCK
TAF
KMCK 272341Z 2800/2824 16016G23KT P6SM FEW060
     FM280600 17011KT P6SM BKN250 WS020/19040KT
     FM280900 20010KT P6SM SCT120
     FM281000 33015G20KT P6SM SCT120
     FM282000 35011KT P6SM FEW200=

USA.gov is the U.S. government's official web portal to all federal, state and local government web resources and services.